You are not logged in, Click here to log in
ICAO: RKPC Country: 韓國濟州島濟州市
Latitude: 33.5104 Longitude: 126.491
Total Arrivals: 27 Total Departures: 24
Latest Arrival: BR8021 (RCSS-RKPC)Lun. Wang Latest Departure: BX8104 (RKPC-RKPK)Lun. Wang
Scenery:
METAR : RKPC 241100Z 24008KT CAVOK 25/M01 Q1014 NOSIG

濟州國際機場